sensor_id;sensor_type;location;lat;lon;timestamp;P1;durP1;ratioP1;P2;durP2;ratioP2
61330;SDS011;57640;52.472;-1.950;2023-04-25T00:02:06;2.67;;;1.05;;
61330;SDS011;57640;52.472;-1.950;2023-04-25T00:05:11;1.35;;;0.93;;
61330;SDS011;57640;52.472;-1.950;2023-04-25T00:08:20;2.80;;;0.93;;
61330;SDS011;57640;52.472;-1.950;2023-04-25T00:11:25;1.00;;;0.80;;
61330;SDS011;57640;52.472;-1.950;2023-04-25T00:14:30;1.58;;;0.90;;
61330;SDS011;57640;52.472;-1.950;2023-04-25T00:17:36;2.75;;;1.00;;
61330;SDS011;57640;52.472;-1.950;2023-04-25T00:20:42;1.23;;;0.90;;
61330;SDS011;57640;52.472;-1.950;2023-04-25T00:23:52;1.30;;;1.00;;
61330;SDS011;57640;52.472;-1.950;2023-04-25T00:26:57;1.58;;;0.80;;
61330;SDS011;57640;52.472;-1.950;2023-04-25T00:30:03;1.65;;;1.00;;
61330;SDS011;57640;52.472;-1.950;2023-04-25T00:33:09;1.88;;;0.80;;
61330;SDS011;57640;52.472;-1.950;2023-04-25T00:36:14;4.13;;;0.90;;
61330;SDS011;57640;52.472;-1.950;2023-04-25T00:39:23;1.25;;;0.80;;
61330;SDS011;57640;52.472;-1.950;2023-04-25T00:42:28;1.58;;;0.70;;
61330;SDS011;57640;52.472;-1.950;2023-04-25T00:45:34;3.67;;;0.80;;
61330;SDS011;57640;52.472;-1.950;2023-04-25T00:51:47;1.10;;;0.80;;
61330;SDS011;57640;52.472;-1.950;2023-04-25T00:54:55;0.80;;;0.70;;
61330;SDS011;57640;52.472;-1.950;2023-04-25T00:58:01;1.50;;;0.70;;
61330;SDS011;57640;52.472;-1.950;2023-04-25T01:01:06;0.95;;;0.80;;
61330;SDS011;57640;52.472;-1.950;2023-04-25T01:04:12;0.93;;;0.60;;
61330;SDS011;57640;52.472;-1.950;2023-04-25T01:07:18;1.27;;;0.65;;
61330;SDS011;57640;52.472;-1.950;2023-04-25T01:10:26;2.15;;;0.75;;
61330;SDS011;57640;52.472;-1.950;2023-04-25T01:13:31;2.15;;;0.60;;
61330;SDS011;57640;52.472;-1.950;2023-04-25T01:16:37;0.95;;;0.70;;
61330;SDS011;57640;52.472;-1.950;2023-04-25T01:19:43;0.68;;;0.65;;
61330;SDS011;57640;52.472;-1.950;2023-04-25T01:22:53;1.35;;;0.60;;
61330;SDS011;57640;52.472;-1.950;2023-04-25T01:26:00;1.67;;;0.65;;
61330;SDS011;57640;52.472;-1.950;2023-04-25T01:29:05;5.40;;;0.77;;
61330;SDS011;57640;52.472;-1.950;2023-04-25T01:32:11;0.50;;;0.50;;
61330;SDS011;57640;52.472;-1.950;2023-04-25T01:35:17;0.77;;;0.60;;
61330;SDS011;57640;52.472;-1.950;2023-04-25T01:38:25;0.95;;;0.50;;
61330;SDS011;57640;52.472;-1.950;2023-04-25T01:41:30;1.20;;;0.70;;
61330;SDS011;57640;52.472;-1.950;2023-04-25T01:44:36;0.63;;;0.60;;
61330;SDS011;57640;52.472;-1.950;2023-04-25T01:47:42;1.25;;;0.60;;
61330;SDS011;57640;52.472;-1.950;2023-04-25T01:50:51;0.70;;;0.50;;
61330;SDS011;57640;52.472;-1.950;2023-04-25T01:53:59;0.55;;;0.55;;
61330;SDS011;57640;52.472;-1.950;2023-04-25T01:57:04;0.73;;;0.60;;
61330;SDS011;57640;52.472;-1.950;2023-04-25T02:00:10;1.20;;;0.60;;
61330;SDS011;57640;52.472;-1.950;2023-04-25T02:03:15;0.95;;;0.60;;
61330;SDS011;57640;52.472;-1.950;2023-04-25T02:06:21;0.50;;;0.50;;
61330;SDS011;57640;52.472;-1.950;2023-04-25T02:09:31;3.28;;;0.60;;
61330;SDS011;57640;52.472;-1.950;2023-04-25T02:12:37;0.90;;;0.70;;
61330;SDS011;57640;52.472;-1.950;2023-04-25T02:15:42;1.98;;;0.73;;
61330;SDS011;57640;52.472;-1.950;2023-04-25T02:18:48;1.48;;;0.60;;
61330;SDS011;57640;52.472;-1.950;2023-04-25T02:21:55;0.88;;;0.60;;
61330;SDS011;57640;52.472;-1.950;2023-04-25T02:25:03;2.20;;;0.60;;
61330;SDS011;57640;52.472;-1.950;2023-04-25T02:31:14;0.50;;;0.40;;
61330;SDS011;57640;52.472;-1.950;2023-04-25T02:34:19;0.82;;;0.60;;
61330;SDS011;57640;52.472;-1.950;2023-04-25T02:37:24;1.55;;;0.55;;
61330;SDS011;57640;52.472;-1.950;2023-04-25T02:40:32;0.93;;;0.40;;
61330;SDS011;57640;52.472;-1.950;2023-04-25T02:43:37;1.08;;;0.60;;
61330;SDS011;57640;52.472;-1.950;2023-04-25T02:46:43;0.65;;;0.50;;
61330;SDS011;57640;52.472;-1.950;2023-04-25T02:49:48;0.95;;;0.50;;
61330;SDS011;57640;52.472;-1.950;2023-04-25T02:52:53;0.82;;;0.43;;
61330;SDS011;57640;52.472;-1.950;2023-04-25T02:56:01;0.50;;;0.50;;
61330;SDS011;57640;52.472;-1.950;2023-04-25T02:59:07;2.05;;;0.50;;
61330;SDS011;57640;52.472;-1.950;2023-04-25T03:02:12;0.82;;;0.60;;
61330;SDS011;57640;52.472;-1.950;2023-04-25T03:05:18;2.47;;;0.60;;
61330;SDS011;57640;52.472;-1.950;2023-04-25T03:08:23;1.08;;;0.50;;
61330;SDS011;57640;52.472;-1.950;2023-04-25T03:11:34;0.40;;;0.40;;
61330;SDS011;57640;52.472;-1.950;2023-04-25T03:14:39;1.10;;;0.30;;
61330;SDS011;57640;52.472;-1.950;2023-04-25T03:17:45;0.40;;;0.40;;
61330;SDS011;57640;52.472;-1.950;2023-04-25T03:21:03;2.47;;;0.60;;
61330;SDS011;57640;52.472;-1.950;2023-04-25T03:24:22;0.77;;;0.40;;
61330;SDS011;57640;52.472;-1.950;2023-04-25T03:27:44;0.73;;;0.50;;
61330;SDS011;57640;52.472;-1.950;2023-04-25T03:31:02;1.73;;;0.60;;
61330;SDS011;57640;52.472;-1.950;2023-04-25T03:34:21;0.50;;;0.50;;
61330;SDS011;57640;52.472;-1.950;2023-04-25T03:37:39;0.85;;;0.50;;
61330;SDS011;57640;52.472;-1.950;2023-04-25T03:41:00;0.90;;;0.50;;
61330;SDS011;57640;52.472;-1.950;2023-04-25T03:44:21;0.85;;;0.35;;
61330;SDS011;57640;52.472;-1.950;2023-04-25T03:47:40;0.40;;;0.40;;
61330;SDS011;57640;52.472;-1.950;2023-04-25T03:50:58;0.43;;;0.43;;
61330;SDS011;57640;52.472;-1.950;2023-04-25T03:57:35;0.95;;;0.52;;
61330;SDS011;57640;52.472;-1.950;2023-04-25T04:00:56;1.88;;;0.57;;
61330;SDS011;57640;52.472;-1.950;2023-04-25T04:04:15;0.50;;;0.50;;
61330;SDS011;57640;52.472;-1.950;2023-04-25T04:10:55;0.50;;;0.40;;
61330;SDS011;57640;52.472;-1.950;2023-04-25T04:14:13;0.77;;;0.50;;
61330;SDS011;57640;52.472;-1.950;2023-04-25T04:20:52;0.80;;;0.40;;
61330;SDS011;57640;52.472;-1.950;2023-04-25T04:24:11;1.65;;;0.60;;
61330;SDS011;57640;52.472;-1.950;2023-04-25T04:27:30;1.02;;;0.52;;
61330;SDS011;57640;52.472;-1.950;2023-04-25T04:30:48;0.60;;;0.43;;
61330;SDS011;57640;52.472;-1.950;2023-04-25T04:34:07;0.47;;;0.40;;
61330;SDS011;57640;52.472;-1.950;2023-04-25T04:37:28;2.78;;;0.40;;
61330;SDS011;57640;52.472;-1.950;2023-04-25T04:40:48;0.63;;;0.40;;
61330;SDS011;57640;52.472;-1.950;2023-04-25T04:44:07;1.23;;;0.50;;
61330;SDS011;57640;52.472;-1.950;2023-04-25T04:47:26;0.50;;;0.40;;
61330;SDS011;57640;52.472;-1.950;2023-04-25T04:50:46;0.40;;;0.40;;
61330;SDS011;57640;52.472;-1.950;2023-04-25T04:57:25;0.70;;;0.47;;
61330;SDS011;57640;52.472;-1.950;2023-04-25T05:00:44;0.60;;;0.50;;
61330;SDS011;57640;52.472;-1.950;2023-04-25T05:04:02;0.88;;;0.50;;
61330;SDS011;57640;52.472;-1.950;2023-04-25T05:10:39;0.75;;;0.43;;
61330;SDS011;57640;52.472;-1.950;2023-04-25T05:17:19;0.50;;;0.38;;
61330;SDS011;57640;52.472;-1.950;2023-04-25T05:20:37;0.40;;;0.40;;
61330;SDS011;57640;52.472;-1.950;2023-04-25T05:23:55;1.15;;;0.40;;
61330;SDS011;57640;52.472;-1.950;2023-04-25T05:27:16;0.30;;;0.30;;
61330;SDS011;57640;52.472;-1.950;2023-04-25T05:30:34;0.50;;;0.50;;
61330;SDS011;57640;52.472;-1.950;2023-04-25T05:33:55;0.38;;;0.38;;
61330;SDS011;57640;52.472;-1.950;2023-04-25T05:37:14;0.82;;;0.40;;
61330;SDS011;57640;52.472;-1.950;2023-04-25T05:40:32;0.30;;;0.30;;
61330;SDS011;57640;52.472;-1.950;2023-04-25T05:43:51;0.43;;;0.40;;
61330;SDS011;57640;52.472;-1.950;2023-04-25T05:47:09;0.40;;;0.30;;
61330;SDS011;57640;52.472;-1.950;2023-04-25T05:53:48;0.32;;;0.32;;
61330;SDS011;57640;52.472;-1.950;2023-04-25T05:57:07;0.45;;;0.40;;
61330;SDS011;57640;52.472;-1.950;2023-04-25T06:00:25;0.60;;;0.40;;
61330;SDS011;57640;52.472;-1.950;2023-04-25T06:03:44;0.50;;;0.40;;
61330;SDS011;57640;52.472;-1.950;2023-04-25T06:10:23;1.85;;;0.50;;
61330;SDS011;57640;52.472;-1.950;2023-04-25T06:13:42;0.38;;;0.35;;
61330;SDS011;57640;52.472;-1.950;2023-04-25T06:17:00;0.30;;;0.30;;
61330;SDS011;57640;52.472;-1.950;2023-04-25T06:20:21;1.25;;;0.40;;
61330;SDS011;57640;52.472;-1.950;2023-04-25T06:27:01;0.80;;;0.40;;
61330;SDS011;57640;52.472;-1.950;2023-04-25T06:30:19;0.65;;;0.45;;
61330;SDS011;57640;52.472;-1.950;2023-04-25T06:33:41;1.33;;;0.32;;
61330;SDS011;57640;52.472;-1.950;2023-04-25T06:36:59;0.30;;;0.30;;
61330;SDS011;57640;52.472;-1.950;2023-04-25T06:40:17;0.68;;;0.47;;
61330;SDS011;57640;52.472;-1.950;2023-04-25T06:46:57;0.43;;;0.43;;
61330;SDS011;57640;52.472;-1.950;2023-04-25T06:50:15;0.85;;;0.40;;
61330;SDS011;57640;52.472;-1.950;2023-04-25T06:53:34;0.35;;;0.35;;
61330;SDS011;57640;52.472;-1.950;2023-04-25T06:56:52;2.60;;;0.57;;
61330;SDS011;57640;52.472;-1.950;2023-04-25T07:03:31;1.33;;;0.40;;
61330;SDS011;57640;52.472;-1.950;2023-04-25T07:06:50;0.60;;;0.40;;
61330;SDS011;57640;52.472;-1.950;2023-04-25T07:10:09;1.33;;;0.32;;
61330;SDS011;57640;52.472;-1.950;2023-04-25T07:13:27;2.15;;;0.50;;
61330;SDS011;57640;52.472;-1.950;2023-04-25T07:16:46;0.50;;;0.50;;
61330;SDS011;57640;52.472;-1.950;2023-04-25T07:20:08;0.55;;;0.40;;
61330;SDS011;57640;52.472;-1.950;2023-04-25T07:23:27;1.20;;;0.40;;
61330;SDS011;57640;52.472;-1.950;2023-04-25T07:26:45;1.23;;;0.50;;
61330;SDS011;57640;52.472;-1.950;2023-04-25T07:30:04;1.35;;;0.55;;
61330;SDS011;57640;52.472;-1.950;2023-04-25T07:33:23;1.23;;;0.57;;
61330;SDS011;57640;52.472;-1.950;2023-04-25T07:40:03;0.82;;;0.50;;
61330;SDS011;57640;52.472;-1.950;2023-04-25T07:43:23;1.13;;;0.50;;
61330;SDS011;57640;52.472;-1.950;2023-04-25T07:50:00;0.77;;;0.50;;
61330;SDS011;57640;52.472;-1.950;2023-04-25T07:53:18;0.80;;;0.60;;
61330;SDS011;57640;52.472;-1.950;2023-04-25T08:03:16;0.95;;;0.77;;
61330;SDS011;57640;52.472;-1.950;2023-04-25T08:06:35;0.50;;;0.40;;
61330;SDS011;57640;52.472;-1.950;2023-04-25T08:09:53;0.65;;;0.50;;
61330;SDS011;57640;52.472;-1.950;2023-04-25T08:13:12;1.85;;;0.57;;
61330;SDS011;57640;52.472;-1.950;2023-04-25T08:19:51;0.40;;;0.40;;
61330;SDS011;57640;52.472;-1.950;2023-04-25T08:23:10;1.10;;;0.50;;
61330;SDS011;57640;52.472;-1.950;2023-04-25T08:26:29;3.42;;;0.70;;
61330;SDS011;57640;52.472;-1.950;2023-04-25T08:29:48;4.07;;;0.60;;
61330;SDS011;57640;52.472;-1.950;2023-04-25T08:36:28;1.13;;;0.52;;
61330;SDS011;57640;52.472;-1.950;2023-04-25T08:39:47;2.17;;;0.65;;
61330;SDS011;57640;52.472;-1.950;2023-04-25T08:43:07;0.65;;;0.55;;
61330;SDS011;57640;52.472;-1.950;2023-04-25T08:46:26;1.30;;;0.40;;
61330;SDS011;57640;52.472;-1.950;2023-04-25T08:49:46;2.28;;;0.75;;
61330;SDS011;57640;52.472;-1.950;2023-04-25T08:56:25;3.33;;;0.90;;
61330;SDS011;57640;52.472;-1.950;2023-04-25T08:59:44;2.80;;;1.55;;
61330;SDS011;57640;52.472;-1.950;2023-04-25T09:03:04;2.58;;;1.50;;
61330;SDS011;57640;52.472;-1.950;2023-04-25T09:06:23;3.08;;;1.80;;
61330;SDS011;57640;52.472;-1.950;2023-04-25T09:09:43;2.65;;;1.67;;
61330;SDS011;57640;52.472;-1.950;2023-04-25T09:16:13;3.97;;;1.90;;
61330;SDS011;57640;52.472;-1.950;2023-04-25T09:19:21;2.45;;;1.73;;
61330;SDS011;57640;52.472;-1.950;2023-04-25T09:22:27;3.75;;;1.95;;
61330;SDS011;57640;52.472;-1.950;2023-04-25T09:25:36;3.83;;;1.70;;
61330;SDS011;57640;52.472;-1.950;2023-04-25T09:28:41;4.75;;;1.83;;
61330;SDS011;57640;52.472;-1.950;2023-04-25T09:31:53;2.92;;;2.00;;
61330;SDS011;57640;52.472;-1.950;2023-04-25T09:35:02;3.70;;;2.10;;
61330;SDS011;57640;52.472;-1.950;2023-04-25T09:38:09;2.20;;;1.52;;
61330;SDS011;57640;52.472;-1.950;2023-04-25T09:41:15;3.10;;;1.70;;
61330;SDS011;57640;52.472;-1.950;2023-04-25T09:44:27;3.38;;;1.88;;
61330;SDS011;57640;52.472;-1.950;2023-04-25T09:47:36;2.75;;;1.73;;
61330;SDS011;57640;52.472;-1.950;2023-04-25T09:50:42;2.60;;;1.60;;
61330;SDS011;57640;52.472;-1.950;2023-04-25T09:53:47;3.17;;;1.60;;
61330;SDS011;57640;52.472;-1.950;2023-04-25T09:56:54;2.60;;;1.60;;
61330;SDS011;57640;52.472;-1.950;2023-04-25T10:00:00;2.72;;;1.38;;
61330;SDS011;57640;52.472;-1.950;2023-04-25T10:03:09;2.93;;;1.50;;
61330;SDS011;57640;52.472;-1.950;2023-04-25T10:06:17;3.60;;;1.48;;
61330;SDS011;57640;52.472;-1.950;2023-04-25T10:09:24;2.37;;;1.50;;
61330;SDS011;57640;52.472;-1.950;2023-04-25T10:12:32;2.50;;;1.60;;
61330;SDS011;57640;52.472;-1.950;2023-04-25T10:15:37;2.35;;;1.60;;
61330;SDS011;57640;52.472;-1.950;2023-04-25T10:18:46;2.17;;;1.48;;
61330;SDS011;57640;52.472;-1.950;2023-04-25T10:21:52;2.05;;;1.27;;
61330;SDS011;57640;52.472;-1.950;2023-04-25T10:24:58;3.25;;;1.42;;
61330;SDS011;57640;52.472;-1.950;2023-04-25T10:28:06;2.13;;;1.48;;
61330;SDS011;57640;52.472;-1.950;2023-04-25T10:31:11;3.17;;;1.50;;
61330;SDS011;57640;52.472;-1.950;2023-04-25T10:34:37;1.90;;;1.30;;
61330;SDS011;57640;52.472;-1.950;2023-04-25T10:41:04;2.35;;;1.50;;
61330;SDS011;57640;52.472;-1.950;2023-04-25T10:44:10;1.90;;;1.40;;
61330;SDS011;57640;52.472;-1.950;2023-04-25T10:47:16;2.15;;;1.60;;
61330;SDS011;57640;52.472;-1.950;2023-04-25T10:50:42;3.40;;;1.45;;
61330;SDS011;57640;52.472;-1.950;2023-04-25T10:53:56;2.50;;;1.50;;
61330;SDS011;57640;52.472;-1.950;2023-04-25T10:57:01;2.95;;;1.52;;
61330;SDS011;57640;52.472;-1.950;2023-04-25T11:03:17;3.97;;;1.58;;
61330;SDS011;57640;52.472;-1.950;2023-04-25T11:06:27;1.83;;;1.30;;
61330;SDS011;57640;52.472;-1.950;2023-04-25T11:09:34;2.72;;;1.55;;
61330;SDS011;57640;52.472;-1.950;2023-04-25T11:12:40;2.45;;;1.42;;
61330;SDS011;57640;52.472;-1.950;2023-04-25T11:15:46;2.63;;;1.60;;
61330;SDS011;57640;52.472;-1.950;2023-04-25T11:18:56;1.85;;;1.40;;
61330;SDS011;57640;52.472;-1.950;2023-04-25T11:22:05;3.35;;;1.58;;
61330;SDS011;57640;52.472;-1.950;2023-04-25T11:25:11;2.67;;;1.75;;
61330;SDS011;57640;52.472;-1.950;2023-04-25T11:28:20;2.20;;;1.60;;
61330;SDS011;57640;52.472;-1.950;2023-04-25T11:31:26;3.30;;;1.60;;
61330;SDS011;57640;52.472;-1.950;2023-04-25T11:34:31;2.35;;;1.65;;
61330;SDS011;57640;52.472;-1.950;2023-04-25T11:37:41;2.40;;;1.55;;
61330;SDS011;57640;52.472;-1.950;2023-04-25T11:40:49;2.25;;;1.60;;
61330;SDS011;57640;52.472;-1.950;2023-04-25T11:43:54;2.30;;;1.50;;
61330;SDS011;57640;52.472;-1.950;2023-04-25T11:46:59;2.47;;;1.67;;
61330;SDS011;57640;52.472;-1.950;2023-04-25T11:50:05;2.42;;;1.50;;
61330;SDS011;57640;52.472;-1.950;2023-04-25T11:53:15;2.45;;;1.55;;
61330;SDS011;57640;52.472;-1.950;2023-04-25T11:56:22;2.22;;;1.67;;
61330;SDS011;57640;52.472;-1.950;2023-04-25T11:59:28;1.83;;;1.40;;
61330;SDS011;57640;52.472;-1.950;2023-04-25T12:02:34;2.35;;;1.60;;
61330;SDS011;57640;52.472;-1.950;2023-04-25T12:05:40;2.65;;;1.48;;
61330;SDS011;57640;52.472;-1.950;2023-04-25T12:12:09;3.40;;;1.67;;
61330;SDS011;57640;52.472;-1.950;2023-04-25T12:15:15;2.97;;;1.60;;
61330;SDS011;57640;52.472;-1.950;2023-04-25T12:18:24;3.03;;;1.80;;
61330;SDS011;57640;52.472;-1.950;2023-04-25T12:21:30;2.35;;;1.48;;
61330;SDS011;57640;52.472;-1.950;2023-04-25T12:24:37;3.78;;;1.55;;
61330;SDS011;57640;52.472;-1.950;2023-04-25T12:27:45;2.10;;;1.60;;
61330;SDS011;57640;52.472;-1.950;2023-04-25T12:30:53;2.10;;;1.60;;
61330;SDS011;57640;52.472;-1.950;2023-04-25T12:33:58;2.45;;;1.70;;
61330;SDS011;57640;52.472;-1.950;2023-04-25T12:37:04;2.72;;;1.70;;
61330;SDS011;57640;52.472;-1.950;2023-04-25T12:40:10;3.55;;;1.42;;
61330;SDS011;57640;52.472;-1.950;2023-04-25T12:43:19;2.05;;;1.42;;
61330;SDS011;57640;52.472;-1.950;2023-04-25T12:46:24;2.60;;;1.60;;
61330;SDS011;57640;52.472;-1.950;2023-04-25T12:49:30;2.20;;;1.50;;
61330;SDS011;57640;52.472;-1.950;2023-04-25T12:52:35;2.67;;;1.50;;
61330;SDS011;57640;52.472;-1.950;2023-04-25T12:55:40;2.05;;;1.50;;
61330;SDS011;57640;52.472;-1.950;2023-04-25T12:58:50;2.00;;;1.40;;
61330;SDS011;57640;52.472;-1.950;2023-04-25T13:01:56;2.42;;;1.50;;
61330;SDS011;57640;52.472;-1.950;2023-04-25T13:05:01;1.85;;;1.40;;
61330;SDS011;57640;52.472;-1.950;2023-04-25T13:08:07;2.20;;;1.45;;
61330;SDS011;57640;52.472;-1.950;2023-04-25T13:11:12;2.45;;;1.42;;
61330;SDS011;57640;52.472;-1.950;2023-04-25T13:14:20;2.20;;;1.60;;
61330;SDS011;57640;52.472;-1.950;2023-04-25T13:17:25;3.70;;;1.70;;
61330;SDS011;57640;52.472;-1.950;2023-04-25T13:20:32;1.77;;;1.35;;
61330;SDS011;57640;52.472;-1.950;2023-04-25T13:23:37;2.22;;;1.63;;
61330;SDS011;57640;52.472;-1.950;2023-04-25T13:26:45;3.70;;;1.42;;
61330;SDS011;57640;52.472;-1.950;2023-04-25T13:29:53;1.90;;;1.45;;
61330;SDS011;57640;52.472;-1.950;2023-04-25T13:33:00;2.08;;;1.70;;
61330;SDS011;57640;52.472;-1.950;2023-04-25T13:36:06;5.07;;;1.80;;
61330;SDS011;57640;52.472;-1.950;2023-04-25T13:39:11;3.60;;;1.60;;
61330;SDS011;57640;52.472;-1.950;2023-04-25T13:42:17;2.75;;;2.00;;
61330;SDS011;57640;52.472;-1.950;2023-04-25T13:45:25;3.42;;;1.88;;
61330;SDS011;57640;52.472;-1.950;2023-04-25T13:48:31;3.38;;;1.90;;
61330;SDS011;57640;52.472;-1.950;2023-04-25T13:51:37;4.10;;;2.00;;
61330;SDS011;57640;52.472;-1.950;2023-04-25T13:54:42;2.67;;;1.80;;
61330;SDS011;57640;52.472;-1.950;2023-04-25T13:57:48;3.08;;;2.20;;
61330;SDS011;57640;52.472;-1.950;2023-04-25T14:00:56;3.63;;;2.00;;
61330;SDS011;57640;52.472;-1.950;2023-04-25T14:04:01;2.78;;;1.90;;
61330;SDS011;57640;52.472;-1.950;2023-04-25T14:07:07;2.45;;;1.90;;
61330;SDS011;57640;52.472;-1.950;2023-04-25T14:10:13;3.70;;;2.00;;
61330;SDS011;57640;52.472;-1.950;2023-04-25T14:13:18;5.18;;;2.13;;
61330;SDS011;57640;52.472;-1.950;2023-04-25T14:16:26;3.95;;;2.25;;
61330;SDS011;57640;52.472;-1.950;2023-04-25T14:19:32;2.92;;;2.25;;
61330;SDS011;57640;52.472;-1.950;2023-04-25T14:22:37;2.45;;;1.90;;
61330;SDS011;57640;52.472;-1.950;2023-04-25T14:25:45;7.72;;;2.55;;
61330;SDS011;57640;52.472;-1.950;2023-04-25T14:28:51;7.20;;;3.00;;
61330;SDS011;57640;52.472;-1.950;2023-04-25T14:31:59;6.95;;;2.45;;
61330;SDS011;57640;52.472;-1.950;2023-04-25T14:35:08;6.63;;;2.90;;
61330;SDS011;57640;52.472;-1.950;2023-04-25T14:38:13;11.95;;;2.67;;
61330;SDS011;57640;52.472;-1.950;2023-04-25T14:41:19;6.40;;;2.72;;
61330;SDS011;57640;52.472;-1.950;2023-04-25T14:44:25;7.75;;;2.70;;
61330;SDS011;57640;52.472;-1.950;2023-04-25T14:47:36;4.20;;;2.47;;
61330;SDS011;57640;52.472;-1.950;2023-04-25T14:50:44;6.43;;;3.30;;
61330;SDS011;57640;52.472;-1.950;2023-04-25T14:53:49;6.57;;;3.10;;
61330;SDS011;57640;52.472;-1.950;2023-04-25T14:56:55;55.78;;;32.97;;
61330;SDS011;57640;52.472;-1.950;2023-04-25T15:00:00;141.50;;;81.55;;
61330;SDS011;57640;52.472;-1.950;2023-04-25T15:03:10;135.90;;;83.35;;
61330;SDS011;57640;52.472;-1.950;2023-04-25T15:06:16;144.93;;;85.57;;
61330;SDS011;57640;52.472;-1.950;2023-04-25T15:09:21;149.65;;;89.03;;
61330;SDS011;57640;52.472;-1.950;2023-04-25T15:12:27;144.55;;;87.53;;
61330;SDS011;57640;52.472;-1.950;2023-04-25T15:15:32;152.68;;;92.72;;
61330;SDS011;57640;52.472;-1.950;2023-04-25T15:18:40;176.35;;;109.28;;
61330;SDS011;57640;52.472;-1.950;2023-04-25T15:21:46;162.82;;;98.63;;
61330;SDS011;57640;52.472;-1.950;2023-04-25T15:24:52;150.35;;;91.85;;
61330;SDS011;57640;52.472;-1.950;2023-04-25T15:27:58;159.50;;;96.35;;
61330;SDS011;57640;52.472;-1.950;2023-04-25T15:31:06;147.60;;;91.35;;
61330;SDS011;57640;52.472;-1.950;2023-04-25T15:34:14;144.88;;;86.95;;
61330;SDS011;57640;52.472;-1.950;2023-04-25T15:37:20;151.95;;;90.68;;
61330;SDS011;57640;52.472;-1.950;2023-04-25T15:40:25;119.80;;;74.57;;
61330;SDS011;57640;52.472;-1.950;2023-04-25T15:43:31;117.32;;;72.65;;
61330;SDS011;57640;52.472;-1.950;2023-04-25T15:46:40;113.00;;;65.53;;
61330;SDS011;57640;52.472;-1.950;2023-04-25T15:49:49;111.93;;;68.32;;
61330;SDS011;57640;52.472;-1.950;2023-04-25T15:52:55;100.75;;;61.10;;
61330;SDS011;57640;52.472;-1.950;2023-04-25T15:56:00;91.30;;;53.38;;
61330;SDS011;57640;52.472;-1.950;2023-04-25T15:59:05;85.13;;;50.15;;
61330;SDS011;57640;52.472;-1.950;2023-04-25T16:02:11;79.43;;;48.00;;
61330;SDS011;57640;52.472;-1.950;2023-04-25T16:05:20;63.10;;;37.70;;
61330;SDS011;57640;52.472;-1.950;2023-04-25T16:08:25;67.10;;;40.20;;
61330;SDS011;57640;52.472;-1.950;2023-04-25T16:11:31;60.83;;;35.80;;
61330;SDS011;57640;52.472;-1.950;2023-04-25T16:14:36;56.35;;;34.25;;
61330;SDS011;57640;52.472;-1.950;2023-04-25T16:17:41;52.58;;;31.20;;
61330;SDS011;57640;52.472;-1.950;2023-04-25T16:20:49;42.80;;;26.40;;
61330;SDS011;57640;52.472;-1.950;2023-04-25T16:23:55;39.65;;;25.73;;
61330;SDS011;57640;52.472;-1.950;2023-04-25T16:27:00;39.17;;;24.23;;
61330;SDS011;57640;52.472;-1.950;2023-04-25T16:30:07;38.10;;;22.65;;
61330;SDS011;57640;52.472;-1.950;2023-04-25T16:33:13;32.20;;;20.40;;
61330;SDS011;57640;52.472;-1.950;2023-04-25T16:36:20;31.98;;;19.35;;
61330;SDS011;57640;52.472;-1.950;2023-04-25T16:39:26;24.95;;;15.65;;
61330;SDS011;57640;52.472;-1.950;2023-04-25T16:42:31;25.30;;;15.85;;
61330;SDS011;57640;52.472;-1.950;2023-04-25T16:45:37;25.58;;;15.85;;
61330;SDS011;57640;52.472;-1.950;2023-04-25T16:48:42;21.40;;;13.57;;
61330;SDS011;57640;52.472;-1.950;2023-04-25T16:51:52;19.75;;;13.13;;
61330;SDS011;57640;52.472;-1.950;2023-04-25T16:54:57;19.38;;;11.75;;
61330;SDS011;57640;52.472;-1.950;2023-04-25T16:58:02;20.15;;;11.73;;
61330;SDS011;57640;52.472;-1.950;2023-04-25T17:01:09;17.70;;;10.98;;
61330;SDS011;57640;52.472;-1.950;2023-04-25T17:04:17;22.90;;;12.68;;
61330;SDS011;57640;52.472;-1.950;2023-04-25T17:07:25;21.02;;;11.75;;
61330;SDS011;57640;52.472;-1.950;2023-04-25T17:10:30;20.10;;;12.02;;
61330;SDS011;57640;52.472;-1.950;2023-04-25T17:13:35;17.65;;;10.85;;
61330;SDS011;57640;52.472;-1.950;2023-04-25T17:16:41;18.25;;;11.05;;
61330;SDS011;57640;52.472;-1.950;2023-04-25T17:19:46;16.80;;;10.30;;
61330;SDS011;57640;52.472;-1.950;2023-04-25T17:22:54;16.30;;;10.02;;
61330;SDS011;57640;52.472;-1.950;2023-04-25T17:26:00;15.13;;;9.63;;
61330;SDS011;57640;52.472;-1.950;2023-04-25T17:29:05;14.70;;;9.57;;
61330;SDS011;57640;52.472;-1.950;2023-04-25T17:32:10;16.88;;;9.63;;
61330;SDS011;57640;52.472;-1.950;2023-04-25T17:35:18;14.23;;;9.00;;
61330;SDS011;57640;52.472;-1.950;2023-04-25T17:38:27;11.55;;;8.10;;
61330;SDS011;57640;52.472;-1.950;2023-04-25T17:41:32;14.50;;;8.75;;
61330;SDS011;57640;52.472;-1.950;2023-04-25T17:44:39;12.68;;;8.43;;
61330;SDS011;57640;52.472;-1.950;2023-04-25T17:47:45;14.07;;;8.23;;
61330;SDS011;57640;52.472;-1.950;2023-04-25T17:50:50;11.13;;;7.70;;
61330;SDS011;57640;52.472;-1.950;2023-04-25T17:53:58;13.07;;;7.95;;
61330;SDS011;57640;52.472;-1.950;2023-04-25T17:57:03;11.75;;;7.38;;
61330;SDS011;57640;52.472;-1.950;2023-04-25T18:00:09;10.23;;;7.20;;
61330;SDS011;57640;52.472;-1.950;2023-04-25T18:03:15;11.18;;;6.82;;
61330;SDS011;57640;52.472;-1.950;2023-04-25T18:06:21;10.95;;;6.80;;
61330;SDS011;57640;52.472;-1.950;2023-04-25T18:09:29;9.52;;;5.78;;
61330;SDS011;57640;52.472;-1.950;2023-04-25T18:12:35;8.43;;;5.80;;
61330;SDS011;57640;52.472;-1.950;2023-04-25T18:15:40;8.98;;;6.05;;
61330;SDS011;57640;52.472;-1.950;2023-04-25T18:18:46;8.85;;;5.90;;
61330;SDS011;57640;52.472;-1.950;2023-04-25T18:21:54;9.13;;;5.90;;
61330;SDS011;57640;52.472;-1.950;2023-04-25T18:25:02;10.60;;;5.80;;
61330;SDS011;57640;52.472;-1.950;2023-04-25T18:28:11;7.75;;;5.43;;
61330;SDS011;57640;52.472;-1.950;2023-04-25T18:31:16;8.25;;;5.28;;
61330;SDS011;57640;52.472;-1.950;2023-04-25T18:34:26;7.82;;;5.32;;
61330;SDS011;57640;52.472;-1.950;2023-04-25T18:37:31;7.82;;;5.05;;
61330;SDS011;57640;52.472;-1.950;2023-04-25T18:40:39;8.02;;;4.78;;
61330;SDS011;57640;52.472;-1.950;2023-04-25T18:43:44;9.15;;;5.00;;
61330;SDS011;57640;52.472;-1.950;2023-04-25T18:46:50;6.47;;;4.60;;
61330;SDS011;57640;52.472;-1.950;2023-04-25T18:49:55;7.03;;;4.85;;
61330;SDS011;57640;52.472;-1.950;2023-04-25T18:53:00;7.15;;;4.47;;
61330;SDS011;57640;52.472;-1.950;2023-04-25T18:56:22;5.63;;;4.15;;
61330;SDS011;57640;52.472;-1.950;2023-04-25T18:59:41;5.63;;;4.25;;
61330;SDS011;57640;52.472;-1.950;2023-04-25T19:03:00;6.50;;;4.25;;
61330;SDS011;57640;52.472;-1.950;2023-04-25T19:06:20;6.55;;;3.90;;
61330;SDS011;57640;52.472;-1.950;2023-04-25T19:09:40;6.68;;;3.90;;
61330;SDS011;57640;52.472;-1.950;2023-04-25T19:13:01;5.20;;;3.72;;
61330;SDS011;57640;52.472;-1.950;2023-04-25T19:16:21;4.45;;;3.38;;
61330;SDS011;57640;52.472;-1.950;2023-04-25T19:19:40;5.60;;;3.70;;
61330;SDS011;57640;52.472;-1.950;2023-04-25T19:26:17;4.85;;;3.45;;
61330;SDS011;57640;52.472;-1.950;2023-04-25T19:29:39;5.18;;;3.45;;
61330;SDS011;57640;52.472;-1.950;2023-04-25T19:33:00;4.72;;;3.45;;
61330;SDS011;57640;52.472;-1.950;2023-04-25T19:39:39;5.00;;;3.20;;
61330;SDS011;57640;52.472;-1.950;2023-04-25T19:42:57;4.32;;;3.33;;
61330;SDS011;57640;52.472;-1.950;2023-04-25T19:46:18;5.22;;;3.50;;
61330;SDS011;57640;52.472;-1.950;2023-04-25T19:49:37;4.68;;;3.13;;
61330;SDS011;57640;52.472;-1.950;2023-04-25T19:52:55;3.95;;;2.92;;
61330;SDS011;57640;52.472;-1.950;2023-04-25T19:56:14;4.15;;;3.03;;
61330;SDS011;57640;52.472;-1.950;2023-04-25T19:59:32;4.82;;;3.25;;
61330;SDS011;57640;52.472;-1.950;2023-04-25T20:02:53;4.40;;;3.30;;
61330;SDS011;57640;52.472;-1.950;2023-04-25T20:05:59;5.18;;;3.00;;
61330;SDS011;57640;52.472;-1.950;2023-04-25T20:09:05;3.80;;;3.20;;
61330;SDS011;57640;52.472;-1.950;2023-04-25T20:12:10;4.05;;;2.70;;